sensor_id;sensor_type;location;lat;lon;timestamp;P1;durP1;ratioP1;P2;durP2;ratioP2
69837;SDS011;57135;51.992;4.476;2023-01-31T00:01:28;9.07;;;6.32;;
69837;SDS011;57135;51.992;4.476;2023-01-31T00:03:58;8.92;;;6.23;;
69837;SDS011;57135;51.992;4.476;2023-01-31T00:06:29;10.35;;;7.12;;
69837;SDS011;57135;51.992;4.476;2023-01-31T00:08:57;10.14;;;6.95;;
69837;SDS011;57135;51.992;4.476;2023-01-31T00:11:24;9.61;;;6.61;;
69837;SDS011;57135;51.992;4.476;2023-01-31T00:13:51;9.54;;;6.55;;
69837;SDS011;57135;51.992;4.476;2023-01-31T00:16:17;9.49;;;6.48;;
69837;SDS011;57135;51.992;4.476;2023-01-31T00:18:44;10.05;;;6.80;;
69837;SDS011;57135;51.992;4.476;2023-01-31T00:23:40;9.50;;;6.38;;
69837;SDS011;57135;51.992;4.476;2023-01-31T00:28:33;10.89;;;7.09;;
69837;SDS011;57135;51.992;4.476;2023-01-31T00:30:59;10.73;;;6.99;;
69837;SDS011;57135;51.992;4.476;2023-01-31T00:33:24;10.90;;;7.04;;
69837;SDS011;57135;51.992;4.476;2023-01-31T00:35:50;10.54;;;6.85;;
69837;SDS011;57135;51.992;4.476;2023-01-31T00:38:15;10.13;;;6.61;;
69837;SDS011;57135;51.992;4.476;2023-01-31T00:40:41;10.87;;;7.16;;
69837;SDS011;57135;51.992;4.476;2023-01-31T00:43:06;9.75;;;6.42;;
69837;SDS011;57135;51.992;4.476;2023-01-31T00:45:34;11.21;;;7.32;;
69837;SDS011;57135;51.992;4.476;2023-01-31T00:48:00;10.48;;;6.79;;
69837;SDS011;57135;51.992;4.476;2023-01-31T00:50:25;10.30;;;6.67;;
69837;SDS011;57135;51.992;4.476;2023-01-31T00:52:52;10.75;;;6.98;;
69837;SDS011;57135;51.992;4.476;2023-01-31T00:55:18;11.74;;;7.53;;
69837;SDS011;57135;51.992;4.476;2023-01-31T00:57:43;11.43;;;7.49;;
69837;SDS011;57135;51.992;4.476;2023-01-31T01:00:09;11.61;;;7.79;;
69837;SDS011;57135;51.992;4.476;2023-01-31T01:02:35;11.01;;;7.61;;
69837;SDS011;57135;51.992;4.476;2023-01-31T01:05:00;12.80;;;8.78;;
69837;SDS011;57135;51.992;4.476;2023-01-31T01:07:25;12.28;;;8.39;;
69837;SDS011;57135;51.992;4.476;2023-01-31T01:09:51;11.76;;;8.29;;
69837;SDS011;57135;51.992;4.476;2023-01-31T01:12:18;12.01;;;8.48;;
69837;SDS011;57135;51.992;4.476;2023-01-31T01:14:44;11.98;;;8.39;;
69837;SDS011;57135;51.992;4.476;2023-01-31T01:17:09;13.47;;;9.34;;
69837;SDS011;57135;51.992;4.476;2023-01-31T01:19:34;14.01;;;9.50;;
69837;SDS011;57135;51.992;4.476;2023-01-31T01:22:00;14.13;;;9.47;;
69837;SDS011;57135;51.992;4.476;2023-01-31T01:24:26;14.69;;;9.94;;
69837;SDS011;57135;51.992;4.476;2023-01-31T01:26:53;15.97;;;10.63;;
69837;SDS011;57135;51.992;4.476;2023-01-31T01:29:18;15.91;;;10.51;;
69837;SDS011;57135;51.992;4.476;2023-01-31T01:31:43;16.37;;;10.98;;
69837;SDS011;57135;51.992;4.476;2023-01-31T01:34:13;14.30;;;9.94;;
69837;SDS011;57135;51.992;4.476;2023-01-31T01:36:39;14.72;;;10.15;;
69837;SDS011;57135;51.992;4.476;2023-01-31T01:39:07;14.88;;;10.36;;
69837;SDS011;57135;51.992;4.476;2023-01-31T01:41:34;14.72;;;10.03;;
69837;SDS011;57135;51.992;4.476;2023-01-31T01:44:02;15.20;;;10.30;;
69837;SDS011;57135;51.992;4.476;2023-01-31T01:46:48;14.40;;;9.84;;
69837;SDS011;57135;51.992;4.476;2023-01-31T01:49:17;14.60;;;10.23;;
69837;SDS011;57135;51.992;4.476;2023-01-31T01:51:50;14.46;;;10.14;;
69837;SDS011;57135;51.992;4.476;2023-01-31T01:54:20;13.43;;;9.60;;
69837;SDS011;57135;51.992;4.476;2023-01-31T01:56:52;14.10;;;10.05;;
69837;SDS011;57135;51.992;4.476;2023-01-31T01:59:27;14.02;;;10.00;;
69837;SDS011;57135;51.992;4.476;2023-01-31T02:01:57;12.24;;;9.09;;
69837;SDS011;57135;51.992;4.476;2023-01-31T02:04:24;13.08;;;9.63;;
69837;SDS011;57135;51.992;4.476;2023-01-31T02:06:55;13.12;;;9.55;;
69837;SDS011;57135;51.992;4.476;2023-01-31T02:09:25;12.68;;;9.29;;
69837;SDS011;57135;51.992;4.476;2023-01-31T02:12:14;12.61;;;9.17;;
69837;SDS011;57135;51.992;4.476;2023-01-31T02:14:39;13.08;;;9.59;;
69837;SDS011;57135;51.992;4.476;2023-01-31T02:17:10;12.23;;;9.04;;
69837;SDS011;57135;51.992;4.476;2023-01-31T02:19:50;12.46;;;9.26;;
69837;SDS011;57135;51.992;4.476;2023-01-31T02:22:29;12.21;;;9.13;;
69837;SDS011;57135;51.992;4.476;2023-01-31T02:25:34;12.03;;;9.05;;
69837;SDS011;57135;51.992;4.476;2023-01-31T02:28:48;12.94;;;9.78;;
69837;SDS011;57135;51.992;4.476;2023-01-31T02:39:55;11.31;;;9.02;;
69837;SDS011;57135;51.992;4.476;2023-01-31T02:47:32;11.96;;;9.60;;
69837;SDS011;57135;51.992;4.476;2023-01-31T02:55:20;12.48;;;10.04;;
69837;SDS011;57135;51.992;4.476;2023-01-31T02:58:20;12.50;;;10.07;;
69837;SDS011;57135;51.992;4.476;2023-01-31T03:00:48;13.17;;;10.51;;
69837;SDS011;57135;51.992;4.476;2023-01-31T03:03:22;12.95;;;10.37;;
69837;SDS011;57135;51.992;4.476;2023-01-31T03:08:37;11.91;;;9.93;;
69837;SDS011;57135;51.992;4.476;2023-01-31T03:11:06;12.51;;;10.03;;
69837;SDS011;57135;51.992;4.476;2023-01-31T03:16:40;12.26;;;9.91;;
69837;SDS011;57135;51.992;4.476;2023-01-31T03:19:46;12.89;;;10.08;;
69837;SDS011;57135;51.992;4.476;2023-01-31T03:22:23;12.83;;;10.27;;
69837;SDS011;57135;51.992;4.476;2023-01-31T03:24:53;13.87;;;10.85;;
69837;SDS011;57135;51.992;4.476;2023-01-31T03:27:21;12.69;;;10.16;;
69837;SDS011;57135;51.992;4.476;2023-01-31T03:29:47;13.97;;;11.02;;
69837;SDS011;57135;51.992;4.476;2023-01-31T03:32:25;13.77;;;10.76;;
69837;SDS011;57135;51.992;4.476;2023-01-31T03:34:59;13.39;;;10.59;;
69837;SDS011;57135;51.992;4.476;2023-01-31T03:37:27;12.62;;;10.11;;
69837;SDS011;57135;51.992;4.476;2023-01-31T03:40:09;12.40;;;9.76;;
69837;SDS011;57135;51.992;4.476;2023-01-31T03:42:44;13.29;;;10.46;;
69837;SDS011;57135;51.992;4.476;2023-01-31T03:45:33;12.50;;;9.93;;
69837;SDS011;57135;51.992;4.476;2023-01-31T03:48:08;12.14;;;9.98;;
69837;SDS011;57135;51.992;4.476;2023-01-31T03:50:55;12.21;;;9.94;;
69837;SDS011;57135;51.992;4.476;2023-01-31T03:53:26;12.26;;;9.82;;
69837;SDS011;57135;51.992;4.476;2023-01-31T03:56:03;13.91;;;10.83;;
69837;SDS011;57135;51.992;4.476;2023-01-31T03:58:46;12.45;;;9.79;;
69837;SDS011;57135;51.992;4.476;2023-01-31T04:01:15;12.87;;;10.06;;
69837;SDS011;57135;51.992;4.476;2023-01-31T04:03:44;13.92;;;10.68;;
69837;SDS011;57135;51.992;4.476;2023-01-31T04:06:15;13.37;;;10.28;;
69837;SDS011;57135;51.992;4.476;2023-01-31T04:08:41;12.78;;;9.89;;
69837;SDS011;57135;51.992;4.476;2023-01-31T04:11:08;12.50;;;9.88;;
69837;SDS011;57135;51.992;4.476;2023-01-31T04:13:35;14.79;;;11.00;;
69837;SDS011;57135;51.992;4.476;2023-01-31T04:16:01;15.10;;;11.24;;
69837;SDS011;57135;51.992;4.476;2023-01-31T04:18:27;14.40;;;10.80;;
69837;SDS011;57135;51.992;4.476;2023-01-31T04:20:52;14.36;;;10.72;;
69837;SDS011;57135;51.992;4.476;2023-01-31T04:23:18;12.43;;;9.61;;
69837;SDS011;57135;51.992;4.476;2023-01-31T04:25:44;13.34;;;10.27;;
69837;SDS011;57135;51.992;4.476;2023-01-31T04:28:09;14.49;;;10.52;;
69837;SDS011;57135;51.992;4.476;2023-01-31T04:30:35;14.42;;;10.62;;
69837;SDS011;57135;51.992;4.476;2023-01-31T04:33:00;13.12;;;9.79;;
69837;SDS011;57135;51.992;4.476;2023-01-31T04:35:26;14.33;;;10.66;;
69837;SDS011;57135;51.992;4.476;2023-01-31T04:37:51;13.47;;;10.19;;
69837;SDS011;57135;51.992;4.476;2023-01-31T04:40:17;13.28;;;10.01;;
69837;SDS011;57135;51.992;4.476;2023-01-31T04:42:42;13.33;;;10.01;;
69837;SDS011;57135;51.992;4.476;2023-01-31T04:45:08;13.15;;;9.82;;
69837;SDS011;57135;51.992;4.476;2023-01-31T04:47:34;12.37;;;9.21;;
69837;SDS011;57135;51.992;4.476;2023-01-31T04:49:59;14.00;;;10.17;;
69837;SDS011;57135;51.992;4.476;2023-01-31T04:52:25;13.91;;;9.99;;
69837;SDS011;57135;51.992;4.476;2023-01-31T04:54:50;13.29;;;9.59;;
69837;SDS011;57135;51.992;4.476;2023-01-31T04:57:16;12.87;;;9.25;;
69837;SDS011;57135;51.992;4.476;2023-01-31T04:59:41;13.74;;;9.66;;
69837;SDS011;57135;51.992;4.476;2023-01-31T05:02:07;13.66;;;9.70;;
69837;SDS011;57135;51.992;4.476;2023-01-31T05:04:32;13.56;;;9.48;;
69837;SDS011;57135;51.992;4.476;2023-01-31T05:06:58;15.69;;;10.72;;
69837;SDS011;57135;51.992;4.476;2023-01-31T05:09:23;14.52;;;10.02;;
69837;SDS011;57135;51.992;4.476;2023-01-31T05:11:49;15.33;;;10.49;;
69837;SDS011;57135;51.992;4.476;2023-01-31T05:14:15;14.33;;;10.07;;
69837;SDS011;57135;51.992;4.476;2023-01-31T05:16:41;15.41;;;10.62;;
69837;SDS011;57135;51.992;4.476;2023-01-31T05:19:11;15.87;;;10.76;;
69837;SDS011;57135;51.992;4.476;2023-01-31T05:21:39;13.96;;;9.64;;
69837;SDS011;57135;51.992;4.476;2023-01-31T05:24:23;14.77;;;10.31;;
69837;SDS011;57135;51.992;4.476;2023-01-31T05:26:50;13.96;;;9.72;;
69837;SDS011;57135;51.992;4.476;2023-01-31T05:29:20;14.11;;;9.80;;
69837;SDS011;57135;51.992;4.476;2023-01-31T05:31:49;14.05;;;9.88;;
69837;SDS011;57135;51.992;4.476;2023-01-31T05:34:15;12.42;;;9.03;;
69837;SDS011;57135;51.992;4.476;2023-01-31T05:36:41;13.84;;;9.86;;
69837;SDS011;57135;51.992;4.476;2023-01-31T05:39:07;13.20;;;9.44;;
69837;SDS011;57135;51.992;4.476;2023-01-31T05:41:32;12.99;;;9.40;;
69837;SDS011;57135;51.992;4.476;2023-01-31T05:43:58;13.32;;;9.57;;
69837;SDS011;57135;51.992;4.476;2023-01-31T05:46:23;14.00;;;9.90;;
69837;SDS011;57135;51.992;4.476;2023-01-31T05:48:49;14.76;;;10.27;;
69837;SDS011;57135;51.992;4.476;2023-01-31T05:51:14;14.31;;;10.02;;
69837;SDS011;57135;51.992;4.476;2023-01-31T05:53:39;13.87;;;9.62;;
69837;SDS011;57135;51.992;4.476;2023-01-31T05:56:05;14.05;;;9.81;;
69837;SDS011;57135;51.992;4.476;2023-01-31T05:58:31;14.81;;;10.10;;
69837;SDS011;57135;51.992;4.476;2023-01-31T06:00:56;13.45;;;9.40;;
69837;SDS011;57135;51.992;4.476;2023-01-31T06:03:22;14.75;;;10.21;;
69837;SDS011;57135;51.992;4.476;2023-01-31T06:05:47;17.46;;;11.85;;
69837;SDS011;57135;51.992;4.476;2023-01-31T06:08:13;15.30;;;10.85;;
69837;SDS011;57135;51.992;4.476;2023-01-31T06:10:38;13.70;;;9.62;;
69837;SDS011;57135;51.992;4.476;2023-01-31T06:13:04;14.69;;;10.32;;
69837;SDS011;57135;51.992;4.476;2023-01-31T06:15:31;16.03;;;10.92;;
69837;SDS011;57135;51.992;4.476;2023-01-31T06:17:57;14.14;;;9.75;;
69837;SDS011;57135;51.992;4.476;2023-01-31T06:20:24;14.62;;;10.04;;
69837;SDS011;57135;51.992;4.476;2023-01-31T06:22:50;15.12;;;10.15;;
69837;SDS011;57135;51.992;4.476;2023-01-31T06:25:15;14.62;;;9.92;;
69837;SDS011;57135;51.992;4.476;2023-01-31T06:27:41;13.80;;;9.46;;
69837;SDS011;57135;51.992;4.476;2023-01-31T06:30:07;14.09;;;9.74;;
69837;SDS011;57135;51.992;4.476;2023-01-31T06:32:33;13.27;;;9.31;;
69837;SDS011;57135;51.992;4.476;2023-01-31T06:34:59;13.58;;;9.54;;
69837;SDS011;57135;51.992;4.476;2023-01-31T06:37:24;13.10;;;9.34;;
69837;SDS011;57135;51.992;4.476;2023-01-31T06:39:50;13.57;;;9.59;;
69837;SDS011;57135;51.992;4.476;2023-01-31T06:42:15;12.44;;;9.09;;
69837;SDS011;57135;51.992;4.476;2023-01-31T06:44:41;11.18;;;8.14;;
69837;SDS011;57135;51.992;4.476;2023-01-31T06:47:06;12.12;;;8.50;;
69837;SDS011;57135;51.992;4.476;2023-01-31T06:49:32;12.71;;;8.66;;
69837;SDS011;57135;51.992;4.476;2023-01-31T06:51:57;12.09;;;8.00;;
69837;SDS011;57135;51.992;4.476;2023-01-31T06:54:23;11.50;;;7.55;;
69837;SDS011;57135;51.992;4.476;2023-01-31T06:56:48;11.40;;;7.42;;
69837;SDS011;57135;51.992;4.476;2023-01-31T06:59:13;10.11;;;6.65;;
69837;SDS011;57135;51.992;4.476;2023-01-31T07:01:39;10.60;;;6.92;;
69837;SDS011;57135;51.992;4.476;2023-01-31T07:04:04;11.12;;;7.16;;
69837;SDS011;57135;51.992;4.476;2023-01-31T07:06:30;11.72;;;7.52;;
69837;SDS011;57135;51.992;4.476;2023-01-31T07:08:55;11.58;;;7.29;;
69837;SDS011;57135;51.992;4.476;2023-01-31T07:11:24;11.91;;;7.62;;
69837;SDS011;57135;51.992;4.476;2023-01-31T07:13:49;10.73;;;6.98;;
69837;SDS011;57135;51.992;4.476;2023-01-31T07:16:14;11.98;;;7.74;;
69837;SDS011;57135;51.992;4.476;2023-01-31T07:18:41;10.89;;;7.06;;
69837;SDS011;57135;51.992;4.476;2023-01-31T07:21:06;10.91;;;7.20;;
69837;SDS011;57135;51.992;4.476;2023-01-31T07:23:32;10.19;;;6.89;;
69837;SDS011;57135;51.992;4.476;2023-01-31T07:25:57;9.89;;;6.67;;
69837;SDS011;57135;51.992;4.476;2023-01-31T07:28:22;9.87;;;6.77;;
69837;SDS011;57135;51.992;4.476;2023-01-31T07:30:48;9.11;;;6.17;;
69837;SDS011;57135;51.992;4.476;2023-01-31T07:33:15;9.49;;;6.33;;
69837;SDS011;57135;51.992;4.476;2023-01-31T07:35:41;9.65;;;6.33;;
69837;SDS011;57135;51.992;4.476;2023-01-31T07:38:07;10.26;;;6.61;;
69837;SDS011;57135;51.992;4.476;2023-01-31T07:40:32;11.51;;;7.78;;
69837;SDS011;57135;51.992;4.476;2023-01-31T07:42:58;9.47;;;6.57;;
69837;SDS011;57135;51.992;4.476;2023-01-31T07:45:24;9.02;;;6.20;;
69837;SDS011;57135;51.992;4.476;2023-01-31T07:47:50;9.23;;;6.07;;
69837;SDS011;57135;51.992;4.476;2023-01-31T07:50:16;9.47;;;6.08;;
69837;SDS011;57135;51.992;4.476;2023-01-31T07:52:42;8.82;;;5.75;;
69837;SDS011;57135;51.992;4.476;2023-01-31T07:55:08;9.97;;;6.46;;
69837;SDS011;57135;51.992;4.476;2023-01-31T07:57:33;9.24;;;5.95;;
69837;SDS011;57135;51.992;4.476;2023-01-31T07:59:59;9.62;;;6.13;;
69837;SDS011;57135;51.992;4.476;2023-01-31T08:02:25;10.07;;;6.36;;
69837;SDS011;57135;51.992;4.476;2023-01-31T08:05:09;9.40;;;5.85;;
69837;SDS011;57135;51.992;4.476;2023-01-31T08:07:38;9.82;;;6.11;;
69837;SDS011;57135;51.992;4.476;2023-01-31T08:10:03;9.67;;;5.97;;
69837;SDS011;57135;51.992;4.476;2023-01-31T08:12:29;10.33;;;6.32;;
69837;SDS011;57135;51.992;4.476;2023-01-31T08:14:55;10.06;;;6.27;;
69837;SDS011;57135;51.992;4.476;2023-01-31T08:17:20;9.14;;;5.87;;
69837;SDS011;57135;51.992;4.476;2023-01-31T08:19:46;8.76;;;5.57;;
69837;SDS011;57135;51.992;4.476;2023-01-31T08:22:11;9.71;;;6.20;;
69837;SDS011;57135;51.992;4.476;2023-01-31T08:24:37;9.88;;;6.22;;
69837;SDS011;57135;51.992;4.476;2023-01-31T08:27:02;9.55;;;6.05;;
69837;SDS011;57135;51.992;4.476;2023-01-31T08:29:28;10.71;;;6.71;;
69837;SDS011;57135;51.992;4.476;2023-01-31T08:31:53;10.33;;;6.52;;
69837;SDS011;57135;51.992;4.476;2023-01-31T08:34:19;9.55;;;6.00;;
69837;SDS011;57135;51.992;4.476;2023-01-31T08:36:45;10.76;;;6.77;;
69837;SDS011;57135;51.992;4.476;2023-01-31T08:39:11;11.23;;;6.95;;
69837;SDS011;57135;51.992;4.476;2023-01-31T08:41:37;10.98;;;6.78;;
69837;SDS011;57135;51.992;4.476;2023-01-31T08:44:05;10.79;;;6.76;;
69837;SDS011;57135;51.992;4.476;2023-01-31T08:46:32;10.98;;;7.00;;
69837;SDS011;57135;51.992;4.476;2023-01-31T08:49:00;9.59;;;6.24;;
69837;SDS011;57135;51.992;4.476;2023-01-31T08:51:27;10.36;;;6.65;;
69837;SDS011;57135;51.992;4.476;2023-01-31T08:53:53;11.42;;;7.27;;
69837;SDS011;57135;51.992;4.476;2023-01-31T08:56:18;11.64;;;7.39;;
69837;SDS011;57135;51.992;4.476;2023-01-31T08:58:45;10.22;;;6.58;;
69837;SDS011;57135;51.992;4.476;2023-01-31T09:01:12;11.16;;;7.07;;
69837;SDS011;57135;51.992;4.476;2023-01-31T09:03:39;11.89;;;7.56;;
69837;SDS011;57135;51.992;4.476;2023-01-31T09:06:06;11.90;;;7.55;;
69837;SDS011;57135;51.992;4.476;2023-01-31T09:08:34;12.33;;;7.76;;
69837;SDS011;57135;51.992;4.476;2023-01-31T09:11:00;12.03;;;7.59;;
69837;SDS011;57135;51.992;4.476;2023-01-31T09:13:26;11.81;;;7.66;;
69837;SDS011;57135;51.992;4.476;2023-01-31T09:15:59;10.79;;;6.99;;
69837;SDS011;57135;51.992;4.476;2023-01-31T09:18:26;11.11;;;7.16;;
69837;SDS011;57135;51.992;4.476;2023-01-31T09:20:52;12.80;;;8.18;;
69837;SDS011;57135;51.992;4.476;2023-01-31T09:23:18;12.90;;;8.18;;
69837;SDS011;57135;51.992;4.476;2023-01-31T09:25:50;13.22;;;8.32;;
69837;SDS011;57135;51.992;4.476;2023-01-31T09:28:17;12.39;;;7.81;;
69837;SDS011;57135;51.992;4.476;2023-01-31T09:30:42;13.00;;;8.26;;
69837;SDS011;57135;51.992;4.476;2023-01-31T09:33:08;12.28;;;7.83;;
69837;SDS011;57135;51.992;4.476;2023-01-31T09:35:33;12.50;;;8.07;;
69837;SDS011;57135;51.992;4.476;2023-01-31T09:37:58;14.58;;;9.05;;
69837;SDS011;57135;51.992;4.476;2023-01-31T09:40:24;12.77;;;8.05;;
69837;SDS011;57135;51.992;4.476;2023-01-31T09:42:56;12.33;;;7.96;;
69837;SDS011;57135;51.992;4.476;2023-01-31T09:45:28;11.12;;;7.27;;
69837;SDS011;57135;51.992;4.476;2023-01-31T09:47:57;11.50;;;7.53;;
69837;SDS011;57135;51.992;4.476;2023-01-31T09:50:39;13.61;;;8.65;;
69837;SDS011;57135;51.992;4.476;2023-01-31T09:53:12;13.17;;;8.35;;
69837;SDS011;57135;51.992;4.476;2023-01-31T09:58:55;13.42;;;8.59;;
69837;SDS011;57135;51.992;4.476;2023-01-31T10:03:59;11.96;;;7.94;;
69837;SDS011;57135;51.992;4.476;2023-01-31T10:06:34;10.99;;;7.38;;
69837;SDS011;57135;51.992;4.476;2023-01-31T10:09:32;12.11;;;7.87;;
69837;SDS011;57135;51.992;4.476;2023-01-31T10:14:48;12.18;;;8.14;;
69837;SDS011;57135;51.992;4.476;2023-01-31T10:20:07;12.41;;;8.23;;
69837;SDS011;57135;51.992;4.476;2023-01-31T10:22:56;11.64;;;7.65;;
69837;SDS011;57135;51.992;4.476;2023-01-31T10:25:32;11.90;;;7.87;;
69837;SDS011;57135;51.992;4.476;2023-01-31T10:28:04;13.41;;;8.77;;
69837;SDS011;57135;51.992;4.476;2023-01-31T10:35:53;11.00;;;7.56;;
69837;SDS011;57135;51.992;4.476;2023-01-31T10:38:27;10.94;;;7.57;;
69837;SDS011;57135;51.992;4.476;2023-01-31T10:41:11;10.68;;;7.27;;
69837;SDS011;57135;51.992;4.476;2023-01-31T10:44:00;12.26;;;8.08;;
69837;SDS011;57135;51.992;4.476;2023-01-31T10:46:31;12.25;;;8.10;;
69837;SDS011;57135;51.992;4.476;2023-01-31T10:48:56;11.43;;;7.60;;
69837;SDS011;57135;51.992;4.476;2023-01-31T10:51:28;12.58;;;8.38;;
69837;SDS011;57135;51.992;4.476;2023-01-31T10:54:17;10.69;;;7.15;;
69837;SDS011;57135;51.992;4.476;2023-01-31T10:56:51;11.05;;;7.41;;
69837;SDS011;57135;51.992;4.476;2023-01-31T10:59:20;10.58;;;7.29;;
69837;SDS011;57135;51.992;4.476;2023-01-31T11:01:51;12.15;;;8.08;;
69837;SDS011;57135;51.992;4.476;2023-01-31T11:04:31;11.97;;;7.91;;
69837;SDS011;57135;51.992;4.476;2023-01-31T11:07:03;12.12;;;8.02;;
69837;SDS011;57135;51.992;4.476;2023-01-31T11:09:35;12.46;;;8.15;;
69837;SDS011;57135;51.992;4.476;2023-01-31T11:12:06;13.75;;;8.90;;
69837;SDS011;57135;51.992;4.476;2023-01-31T11:14:32;13.62;;;8.81;;
69837;SDS011;57135;51.992;4.476;2023-01-31T11:17:07;12.28;;;8.10;;
69837;SDS011;57135;51.992;4.476;2023-01-31T11:19:40;11.72;;;7.80;;
69837;SDS011;57135;51.992;4.476;2023-01-31T11:22:22;12.44;;;8.24;;
69837;SDS011;57135;51.992;4.476;2023-01-31T11:24:51;11.68;;;7.83;;
69837;SDS011;57135;51.992;4.476;2023-01-31T11:27:25;11.32;;;7.66;;
69837;SDS011;57135;51.992;4.476;2023-01-31T11:29:55;10.19;;;6.93;;
69837;SDS011;57135;51.992;4.476;2023-01-31T11:32:27;11.78;;;7.91;;
69837;SDS011;57135;51.992;4.476;2023-01-31T11:37:24;9.96;;;6.84;;
69837;SDS011;57135;51.992;4.476;2023-01-31T11:40:33;11.45;;;7.70;;
69837;SDS011;57135;51.992;4.476;2023-01-31T11:42:51;11.22;;;7.63;;
69837;SDS011;57135;51.992;4.476;2023-01-31T11:45:20;10.48;;;7.23;;
69837;SDS011;57135;51.992;4.476;2023-01-31T11:47:51;10.70;;;7.21;;
69837;SDS011;57135;51.992;4.476;2023-01-31T11:50:26;11.75;;;8.09;;
69837;SDS011;57135;51.992;4.476;2023-01-31T11:52:58;10.17;;;7.23;;
69837;SDS011;57135;51.992;4.476;2023-01-31T11:55:26;10.05;;;7.11;;
69837;SDS011;57135;51.992;4.476;2023-01-31T11:58:00;10.59;;;7.36;;
69837;SDS011;57135;51.992;4.476;2023-01-31T12:00:32;11.30;;;7.84;;
69837;SDS011;57135;51.992;4.476;2023-01-31T12:02:59;12.28;;;8.41;;
69837;SDS011;57135;51.992;4.476;2023-01-31T12:05:34;10.55;;;7.33;;
69837;SDS011;57135;51.992;4.476;2023-01-31T12:08:02;10.32;;;7.38;;
69837;SDS011;57135;51.992;4.476;2023-01-31T12:10:30;10.27;;;7.28;;
69837;SDS011;57135;51.992;4.476;2023-01-31T12:12:58;10.07;;;7.18;;
69837;SDS011;57135;51.992;4.476;2023-01-31T12:15:25;10.20;;;7.28;;
69837;SDS011;57135;51.992;4.476;2023-01-31T12:17:53;10.72;;;7.55;;
69837;SDS011;57135;51.992;4.476;2023-01-31T12:23:11;10.93;;;7.56;;
69837;SDS011;57135;51.992;4.476;2023-01-31T12:42:25;10.51;;;7.68;;
69837;SDS011;57135;51.992;4.476;2023-01-31T12:47:50;10.78;;;7.93;;
69837;SDS011;57135;51.992;4.476;2023-01-31T12:50:54;10.73;;;7.95;;
69837;SDS011;57135;51.992;4.476;2023-01-31T13:04:41;11.02;;;7.93;;
69837;SDS011;57135;51.992;4.476;2023-01-31T13:07:33;10.65;;;7.69;;
69837;SDS011;57135;51.992;4.476;2023-01-31T13:12:58;10.35;;;7.71;;
69837;SDS011;57135;51.992;4.476;2023-01-31T13:17:56;9.35;;;6.87;;
69837;SDS011;57135;51.992;4.476;2023-01-31T13:20:34;9.63;;;6.98;;
69837;SDS011;57135;51.992;4.476;2023-01-31T13:23:06;9.42;;;6.93;;
69837;SDS011;57135;51.992;4.476;2023-01-31T13:25:39;9.75;;;7.00;;
69837;SDS011;57135;51.992;4.476;2023-01-31T13:28:22;9.25;;;6.75;;
69837;SDS011;57135;51.992;4.476;2023-01-31T13:30:52;9.96;;;7.45;;
69837;SDS011;57135;51.992;4.476;2023-01-31T13:33:28;9.23;;;6.93;;
69837;SDS011;57135;51.992;4.476;2023-01-31T13:38:48;9.45;;;6.87;;
69837;SDS011;57135;51.992;4.476;2023-01-31T13:43:56;10.93;;;7.57;;
69837;SDS011;57135;51.992;4.476;2023-01-31T13:46:27;9.37;;;6.66;;
69837;SDS011;57135;51.992;4.476;2023-01-31T13:48:58;8.81;;;6.48;;
69837;SDS011;57135;51.992;4.476;2023-01-31T13:51:34;9.15;;;6.62;;
69837;SDS011;57135;51.992;4.476;2023-01-31T13:54:24;8.86;;;6.39;;
69837;SDS011;57135;51.992;4.476;2023-01-31T13:56:56;9.19;;;6.83;;
69837;SDS011;57135;51.992;4.476;2023-01-31T13:59:24;8.94;;;6.63;;
69837;SDS011;57135;51.992;4.476;2023-01-31T14:01:53;8.54;;;6.37;;
69837;SDS011;57135;51.992;4.476;2023-01-31T14:04:23;9.06;;;6.65;;
69837;SDS011;57135;51.992;4.476;2023-01-31T14:14:51;8.38;;;6.26;;
69837;SDS011;57135;51.992;4.476;2023-01-31T14:27:18;9.90;;;7.05;;
69837;SDS011;57135;51.992;4.476;2023-01-31T14:30:14;9.28;;;6.61;;
69837;SDS011;57135;51.992;4.476;2023-01-31T14:40:45;9.14;;;6.51;;
69837;SDS011;57135;51.992;4.476;2023-01-31T14:46:05;9.66;;;7.04;;
69837;SDS011;57135;51.992;4.476;2023-01-31T14:51:41;9.29;;;6.76;;
69837;SDS011;57135;51.992;4.476;2023-01-31T15:02:21;9.05;;;6.40;;
69837;SDS011;57135;51.992;4.476;2023-01-31T15:07:59;9.43;;;6.94;;
69837;SDS011;57135;51.992;4.476;2023-01-31T15:13:49;10.18;;;7.35;;
69837;SDS011;57135;51.992;4.476;2023-01-31T15:16:26;10.48;;;7.45;;
69837;SDS011;57135;51.992;4.476;2023-01-31T15:19:05;9.73;;;7.05;;
69837;SDS011;57135;51.992;4.476;2023-01-31T15:24:18;9.36;;;6.77;;
69837;SDS011;57135;51.992;4.476;2023-01-31T15:29:47;10.42;;;7.32;;
69837;SDS011;57135;51.992;4.476;2023-01-31T15:32:21;9.41;;;6.68;;
69837;SDS011;57135;51.992;4.476;2023-01-31T15:35:35;9.64;;;6.99;;
69837;SDS011;57135;51.992;4.476;2023-01-31T15:37:37;10.03;;;7.18;;
69837;SDS011;57135;51.992;4.476;2023-01-31T15:40:18;9.40;;;6.81;;
69837;SDS011;57135;51.992;4.476;2023-01-31T15:42:45;9.46;;;6.83;;
69837;SDS011;57135;51.992;4.476;2023-01-31T15:45:21;9.66;;;6.90;;
69837;SDS011;57135;51.992;4.476;2023-01-31T15:48:05;9.15;;;6.62;;
69837;SDS011;57135;51.992;4.476;2023-01-31T15:50:35;8.89;;;6.46;;
69837;SDS011;57135;51.992;4.476;2023-01-31T15:53:04;9.54;;;6.86;;
69837;SDS011;57135;51.992;4.476;2023-01-31T15:55:36;11.01;;;7.66;;
69837;SDS011;57135;51.992;4.476;2023-01-31T15:58:01;10.30;;;7.34;;
69837;SDS011;57135;51.992;4.476;2023-01-31T16:00:35;9.04;;;6.66;;
69837;SDS011;57135;51.992;4.476;2023-01-31T16:03:13;9.68;;;7.15;;
69837;SDS011;57135;51.992;4.476;2023-01-31T16:05:50;9.65;;;6.93;;
69837;SDS011;57135;51.992;4.476;2023-01-31T16:08:24;9.64;;;6.92;;
69837;SDS011;57135;51.992;4.476;2023-01-31T16:10:53;10.26;;;7.27;;
69837;SDS011;57135;51.992;4.476;2023-01-31T16:13:20;10.55;;;7.37;;
69837;SDS011;57135;51.992;4.476;2023-01-31T16:15:46;10.70;;;7.68;;
69837;SDS011;57135;51.992;4.476;2023-01-31T16:18:13;10.26;;;7.35;;
69837;SDS011;57135;51.992;4.476;2023-01-31T16:25:56;11.47;;;7.99;;
69837;SDS011;57135;51.992;4.476;2023-01-31T16:29:17;11.94;;;8.29;;
69837;SDS011;57135;51.992;4.476;2023-01-31T16:31:24;11.58;;;8.14;;
69837;SDS011;57135;51.992;4.476;2023-01-31T16:33:53;10.53;;;7.55;;
69837;SDS011;57135;51.992;4.476;2023-01-31T16:36:32;10.85;;;7.92;;
69837;SDS011;57135;51.992;4.476;2023-01-31T16:39:36;11.43;;;8.23;;
69837;SDS011;57135;51.992;4.476;2023-01-31T16:42:06;13.07;;;9.27;;
69837;SDS011;57135;51.992;4.476;2023-01-31T16:44:55;13.13;;;9.20;;
69837;SDS011;57135;51.992;4.476;2023-01-31T16:47:29;10.75;;;7.83;;
69837;SDS011;57135;51.992;4.476;2023-01-31T16:50:17;11.04;;;7.93;;
69837;SDS011;57135;51.992;4.476;2023-01-31T16:52:49;11.95;;;8.53;;
69837;SDS011;57135;51.992;4.476;2023-01-31T16:57:46;11.98;;;8.60;;
69837;SDS011;57135;51.992;4.476;2023-01-31T17:02:52;12.97;;;9.15;;
69837;SDS011;57135;51.992;4.476;2023-01-31T17:05:39;13.55;;;9.52;;
69837;SDS011;57135;51.992;4.476;2023-01-31T17:08:14;13.43;;;9.39;;
69837;SDS011;57135;51.992;4.476;2023-01-31T17:10:42;11.35;;;8.12;;
69837;SDS011;57135;51.992;4.476;2023-01-31T17:15:42;12.10;;;9.00;;
69837;SDS011;57135;51.992;4.476;2023-01-31T17:18:08;13.35;;;10.16;;
69837;SDS011;57135;51.992;4.476;2023-01-31T17:20:34;13.34;;;10.29;;
69837;SDS011;57135;51.992;4.476;2023-01-31T17:23:00;13.36;;;9.70;;
69837;SDS011;57135;51.992;4.476;2023-01-31T17:25:26;14.81;;;10.53;;
69837;SDS011;57135;51.992;4.476;2023-01-31T17:27:56;15.05;;;10.75;;
69837;SDS011;57135;51.992;4.476;2023-01-31T17:30:21;12.93;;;9.53;;
69837;SDS011;57135;51.992;4.476;2023-01-31T17:32:47;12.73;;;9.40;;